Time;durP1;ratioP1;P1;durP2;ratioP2;P2;SDS_P1;SDS_P2;PMS_P1;PMS_P2;Temp;Humidity;BMP_temperature;BMP_pressure;BME280_temperature;BME280_humidity;BME280_pressure;Samples;Min_cycle;Max_cycle;Signal;HPM_P1;HPM_P2
2022/12/30 00:00:44;;;;;;;11.25;2.50;;;;;;;5.80;100.00;100778.09;5052924;28;20020;-71
2022/12/30 00:03:09;;;;;;;20.38;2.63;;;;;;;5.78;100.00;100774.53;5047471;28;20453;-71
2022/12/30 00:05:35;;;;;;;17.63;2.28;;;;;;;5.79;100.00;100778.94;5050178;28;20116;-72
2022/12/30 00:08:00;;;;;;;20.48;3.85;;;;;;;5.78;100.00;100779.75;5046122;28;20557;-71
2022/12/30 00:10:26;;;;;;;22.88;2.58;;;;;;;5.82;100.00;100784.25;5049693;28;20047;-72
2022/12/30 00:35:10;;;;;;;23.67;2.78;;;;;;;5.71;100.00;100771.72;5047979;28;20083;-72
2022/12/30 00:37:35;;;;;;;15.15;2.67;;;;;;;5.71;100.00;100779.56;5046295;28;20393;-72
2022/12/30 00:40:00;;;;;;;13.52;1.98;;;;;;;5.66;100.00;100785.47;5047949;28;20037;-72
2022/12/30 00:45:10;;;;;;;17.38;2.55;;;;;;;5.69;100.00;100791.66;5046969;28;20154;-72
2022/12/30 00:47:35;;;;;;;16.45;2.58;;;;;;;5.64;100.00;100793.22;5049884;28;20195;-72
2022/12/30 00:58:13;;;;;;;15.65;1.80;;;;;;;5.68;100.00;100797.75;5044842;28;20040;-71
2022/12/30 01:00:38;;;;;;;14.30;2.00;;;;;;;5.71;100.00;100808.28;5040011;28;20020;-72
2022/12/30 01:03:03;;;;;;;14.50;2.75;;;;;;;5.69;100.00;100803.84;5032559;28;20501;-71
2022/12/30 01:05:29;;;;;;;13.50;2.95;;;;;;;5.68;100.00;100802.06;5031951;28;20032;-70
2022/12/30 01:07:55;;;;;;;10.93;2.10;;;;;;;5.66;100.00;100807.22;5042909;28;20088;-72
2022/12/30 01:10:20;;;;;;;12.05;1.63;;;;;;;5.65;100.00;100801.94;5045235;28;20032;-72
2022/12/30 01:12:46;;;;;;;13.80;2.28;;;;;;;5.62;100.00;100807.94;5050175;28;20067;-72
2022/12/30 01:15:11;;;;;;;17.30;2.08;;;;;;;5.61;100.00;100814.00;5037321;28;20041;-72
2022/12/30 01:17:37;;;;;;;11.80;1.73;;;;;;;5.67;100.00;100813.31;5048304;28;20551;-72
2022/12/30 01:20:04;;;;;;;9.18;2.33;;;;;;;5.66;100.00;100811.56;5049211;28;20504;-72
2022/12/30 01:22:29;;;;;;;14.80;1.52;;;;;;;5.65;100.00;100817.63;5051624;28;20054;-71
2022/12/30 01:24:55;;;;;;;8.23;1.70;;;;;;;5.67;100.00;100805.50;5048753;28;20135;-72
2022/12/30 01:27:20;;;;;;;6.90;1.40;;;;;;;5.61;100.00;100800.06;5047403;28;20036;-72
2022/12/30 01:29:46;;;;;;;7.80;1.63;;;;;;;5.62;100.00;100815.78;5054367;28;20032;-71
2022/12/30 01:32:17;;;;;;;16.77;1.95;;;;;;;5.64;100.00;100816.69;5048864;28;20032;-73
2022/12/30 01:34:43;;;;;;;19.55;2.22;;;;;;;5.62;100.00;100807.94;5036225;28;20022;-73
2022/12/30 01:37:09;;;;;;;15.75;1.65;;;;;;;5.59;100.00;100818.28;5046059;28;20467;-72
2022/12/30 01:39:35;;;;;;;16.10;2.03;;;;;;;5.63;100.00;100820.19;5035198;28;20029;-71
2022/12/30 01:42:01;;;;;;;6.80;1.95;;;;;;;5.62;100.00;100820.13;5046825;28;20037;-69
2022/12/30 01:44:53;;;;;;;9.80;2.00;;;;;;;5.59;100.00;100813.06;5041866;28;20044;-71
2022/12/30 01:47:24;;;;;;;17.05;2.58;;;;;;;5.61;100.00;100814.00;5052200;28;20477;-71
2022/12/30 01:49:53;;;;;;;11.55;2.40;;;;;;;5.59;100.00;100807.84;5049841;28;20044;-72
2022/12/30 01:52:23;;;;;;;8.75;2.33;;;;;;;5.56;100.00;100807.72;5050951;28;20108;-72
2022/12/30 01:54:49;;;;;;;12.25;1.60;;;;;;;5.60;100.00;100807.00;5043248;28;20025;-72
2022/12/30 01:57:16;;;;;;;15.88;2.90;;;;;;;5.63;100.00;100814.03;5056840;28;20028;-72
2022/12/30 01:59:43;;;;;;;17.67;3.28;;;;;;;5.65;100.00;100801.94;5050134;28;20040;-72
2022/12/30 02:02:10;;;;;;;18.88;2.80;;;;;;;5.66;100.00;100794.16;5026088;28;20045;-72
2022/12/30 02:04:36;;;;;;;9.10;1.88;;;;;;;5.68;100.00;100802.06;5035233;28;20063;-71
2022/12/30 02:07:07;;;;;;;7.35;1.55;;;;;;;5.65;100.00;100791.50;5051979;28;20033;-71
2022/12/30 02:09:34;;;;;;;11.65;2.03;;;;;;;5.64;100.00;100788.00;5050069;28;20020;-72
2022/12/30 02:12:00;;;;;;;8.32;3.08;;;;;;;5.62;100.00;100784.47;5048030;28;20516;-71
2022/12/30 02:14:29;;;;;;;22.35;2.25;;;;;;;5.68;100.00;100781.16;5050339;28;20480;-71
2022/12/30 02:17:09;;;;;;;6.50;1.90;;;;;;;5.66;100.00;100786.34;5053479;28;20082;-71
2022/12/30 02:20:10;;;;;;;13.35;3.17;;;;;;;5.65;100.00;100792.38;5050224;28;20094;-72
2022/12/30 02:22:58;;;;;;;14.38;2.30;;;;;;;5.64;100.00;100788.00;5040611;28;20411;-72
2022/12/30 02:25:56;;;;;;;16.55;2.75;;;;;;;5.62;100.00;100789.69;5039942;28;20428;-71
2022/12/30 02:28:46;;;;;;;14.15;2.03;;;;;;;5.60;100.00;100788.72;5047780;28;20081;-72
2022/12/30 02:31:11;;;;;;;16.73;2.60;;;;;;;5.61;100.00;100789.63;5038848;28;20029;-72
2022/12/30 02:34:26;;;;;;;11.18;1.95;;;;;;;5.59;100.00;100792.19;5048716;28;20142;-72
2022/12/30 02:37:22;;;;;;;9.90;2.20;;;;;;;5.58;100.00;100783.44;4995793;28;20055;-72
2022/12/30 02:40:02;;;;;;;16.83;2.67;;;;;;;5.59;100.00;100789.56;5048859;28;20036;-72
2022/12/30 02:45:47;;;;;;;9.95;1.92;;;;;;;5.65;100.00;100786.28;5041537;28;20043;-72
2022/12/30 02:48:20;;;;;;;11.20;1.90;;;;;;;5.58;100.00;100782.56;5032274;28;20048;-72
2022/12/30 02:53:35;;;;;;;12.88;1.70;;;;;;;5.54;100.00;100778.06;5054060;28;20185;-72
2022/12/30 02:56:01;;;;;;;10.63;2.03;;;;;;;5.51;100.00;100775.38;5052662;28;20052;-72
2022/12/30 02:58:32;;;;;;;14.93;2.08;;;;;;;5.47;100.00;100768.25;5044592;28;20060;-72
2022/12/30 03:04:15;;;;;;;12.65;2.53;;;;;;;5.43;100.00;100769.84;5038264;28;20051;-73
2022/12/30 03:07:11;;;;;;;14.60;2.92;;;;;;;5.43;100.00;100775.06;5048706;28;20366;-72
2022/12/30 03:12:54;;;;;;;18.58;2.03;;;;;;;5.29;100.00;100766.75;5050700;28;20059;-73
2022/12/30 03:15:25;;;;;;;14.27;2.38;;;;;;;5.29;100.00;100771.06;5035450;28;20381;-71
2022/12/30 03:17:51;;;;;;;13.65;3.45;;;;;;;5.23;100.00;100771.72;5047286;28;20045;-73
2022/12/30 03:20:19;;;;;;;11.98;2.33;;;;;;;5.22;100.00;100764.72;5051957;28;20044;-71
2022/12/30 03:28:20;;;;;;;10.13;2.58;;;;;;;5.10;100.00;100764.28;5046835;28;20067;-73
2022/12/30 03:30:50;;;;;;;19.83;2.67;;;;;;;5.13;100.00;100756.56;5058568;28;20431;-72
2022/12/30 03:33:16;;;;;;;13.60;2.83;;;;;;;5.12;100.00;100762.63;5052167;28;20060;-72
2022/12/30 03:35:51;;;;;;;15.55;2.25;;;;;;;5.12;100.00;100757.41;5050178;28;20035;-72
2022/12/30 03:38:21;;;;;;;16.70;2.75;;;;;;;5.12;100.00;100750.47;5044296;28;20108;-70
2022/12/30 03:40:50;;;;;;;15.80;3.40;;;;;;;5.04;100.00;100750.16;5048179;28;20096;-71
2022/12/30 03:43:16;;;;;;;17.42;2.95;;;;;;;5.05;100.00;100751.06;5050111;28;20037;-72
2022/12/30 03:45:41;;;;;;;13.15;2.78;;;;;;;5.03;100.00;100748.41;5047581;28;20109;-71
2022/12/30 03:48:06;;;;;;;12.73;2.72;;;;;;;5.03;100.00;100735.38;5037110;28;20030;-71
2022/12/30 03:50:32;;;;;;;9.07;3.17;;;;;;;5.00;100.00;100737.84;5045089;28;20051;-72
2022/12/30 03:52:57;;;;;;;15.52;2.28;;;;;;;5.01;100.00;100751.78;5052111;28;20120;-72
2022/12/30 03:55:22;;;;;;;18.95;3.28;;;;;;;5.00;100.00;100752.63;5041573;28;20033;-71
2022/12/30 03:57:48;;;;;;;15.25;2.83;;;;;;;5.05;100.00;100749.34;5060891;28;20119;-72
2022/12/30 04:00:13;;;;;;;20.30;2.58;;;;;;;5.04;100.00;100741.47;5050800;28;20025;-72
2022/12/30 04:02:39;;;;;;;13.80;3.03;;;;;;;5.05;100.00;100735.44;5062171;28;20041;-72
2022/12/30 04:05:08;;;;;;;16.02;2.55;;;;;;;5.05;100.00;100745.88;5037677;28;20029;-72
2022/12/30 04:07:34;;;;;;;16.67;3.30;;;;;;;5.05;100.00;100743.25;5049814;28;20032;-72
2022/12/30 04:09:59;;;;;;;12.10;3.20;;;;;;;4.99;100.00;100741.31;5049684;28;20058;-72
2022/12/30 04:12:25;;;;;;;19.33;3.38;;;;;;;4.97;100.00;100740.34;5050720;28;20435;-71
2022/12/30 04:14:50;;;;;;;15.93;2.22;;;;;;;5.00;100.00;100732.63;5048548;28;20050;-72
2022/12/30 04:17:16;;;;;;;18.58;3.05;;;;;;;4.97;100.00;100740.34;5046754;28;20033;-72
2022/12/30 04:19:41;;;;;;;9.75;2.47;;;;;;;4.94;100.00;100737.63;5060111;28;20029;-73
2022/12/30 04:22:06;;;;;;;10.50;2.63;;;;;;;4.93;100.00;100735.84;5043543;28;20495;-72
2022/12/30 04:24:31;;;;;;;23.73;2.83;;;;;;;4.96;100.00;100746.38;5043753;28;20104;-71
2022/12/30 04:26:57;;;;;;;19.33;3.13;;;;;;;4.97;100.00;100742.09;5047907;28;20071;-71
2022/12/30 04:29:22;;;;;;;9.50;2.83;;;;;;;5.02;100.00;100745.75;5052397;28;20044;-72
2022/12/30 04:31:47;;;;;;;11.60;2.80;;;;;;;5.02;100.00;100743.16;5055051;28;20025;-71
2022/12/30 04:34:14;;;;;;;14.98;3.28;;;;;;;4.98;100.00;100734.31;5041768;28;20021;-73
2022/12/30 04:36:41;;;;;;;12.60;3.00;;;;;;;4.93;100.00;100730.63;5056711;28;20058;-72
2022/12/30 04:39:06;;;;;;;18.67;3.10;;;;;;;4.92;100.00;100723.63;5052531;28;20029;-72
2022/12/30 04:41:32;;;;;;;13.65;2.72;;;;;;;4.91;100.00;100724.50;5051175;28;20020;-71
2022/12/30 04:43:57;;;;;;;12.88;2.67;;;;;;;4.88;100.00;100724.34;5063926;28;20024;-72
2022/12/30 04:46:23;;;;;;;19.17;3.95;;;;;;;4.91;100.00;100724.50;5049520;28;20480;-71
2022/12/30 04:48:48;;;;;;;15.95;3.40;;;;;;;4.88;100.00;100719.13;5047254;28;20029;-72
2022/12/30 04:51:13;;;;;;;14.52;2.58;;;;;;;4.90;100.00;100713.16;5047250;28;20022;-71
2022/12/30 04:53:39;;;;;;;13.35;2.35;;;;;;;4.87;100.00;100706.94;5045388;28;20431;-71
2022/12/30 04:56:04;;;;;;;15.52;2.67;;;;;;;4.92;100.00;100708.00;5051044;28;20081;-72
2022/12/30 04:58:30;;;;;;;12.55;2.30;;;;;;;4.97;100.00;100701.22;5051958;28;20468;-73
2022/12/30 05:00:55;;;;;;;11.35;2.65;;;;;;;4.94;100.00;100706.34;5045445;28;20031;-72
2022/12/30 05:03:20;;;;;;;8.15;2.22;;;;;;;4.94;100.00;100716.78;5048075;28;20404;-71
2022/12/30 05:05:47;;;;;;;17.13;2.30;;;;;;;4.98;100.00;100710.84;5050433;28;20048;-71
2022/12/30 05:08:12;;;;;;;14.60;2.50;;;;;;;4.96;100.00;100715.09;5050639;28;20032;-72
2022/12/30 05:10:38;;;;;;;12.98;2.05;;;;;;;4.93;100.00;100711.50;5043443;28;20063;-70
2022/12/30 05:13:04;;;;;;;22.15;3.17;;;;;;;4.91;100.00;100711.47;5051228;28;20032;-71
2022/12/30 05:15:31;;;;;;;8.13;2.25;;;;;;;4.90;100.00;100710.53;5051583;28;20491;-71
2022/12/30 05:17:56;;;;;;;18.00;2.83;;;;;;;4.93;100.00;100720.22;5051176;28;20032;-71
2022/12/30 05:20:21;;;;;;;14.43;2.45;;;;;;;4.96;100.00;100717.69;5050051;28;20485;-72
2022/12/30 05:22:47;;;;;;;11.70;2.70;;;;;;;4.96;100.00;100714.22;5051261;28;20055;-72
2022/12/30 05:27:56;;;;;;;;;;;;;;;4.96;100.00;100709.88;5050407;28;20114;-72
2022/12/30 05:30:22;;;;;;;11.80;2.72;;;;;;;4.95;100.00;100709.81;5048280;28;19928;-71
2022/12/30 05:32:48;;;;;;;15.30;2.75;;;;;;;4.91;100.00;100708.84;5044608;28;20037;-72
2022/12/30 05:35:13;;;;;;;12.05;2.33;;;;;;;4.85;100.00;100706.88;5050290;28;20028;-71
2022/12/30 05:37:39;;;;;;;23.20;3.72;;;;;;;4.83;100.00;100694.59;5050251;28;20041;-71
2022/12/30 05:40:05;;;;;;;13.65;2.92;;;;;;;4.81;100.00;100693.69;5047629;28;20028;-71
2022/12/30 05:42:31;;;;;;;14.35;3.72;;;;;;;4.83;100.00;100692.00;5065104;28;20051;-73
2022/12/30 05:44:56;;;;;;;11.63;2.70;;;;;;;4.80;100.00;100682.38;5064905;28;20103;-72
2022/12/30 05:47:21;;;;;;;15.48;2.80;;;;;;;4.81;100.00;100689.34;5055775;28;20028;-72
2022/12/30 05:49:47;;;;;;;12.02;2.45;;;;;;;4.78;100.00;100677.94;5060415;28;20037;-71
2022/12/30 05:52:14;;;;;;;16.67;2.50;;;;;;;4.75;100.00;100677.78;5041337;28;20025;-72
2022/12/30 05:54:40;;;;;;;14.18;2.70;;;;;;;4.70;100.00;100681.13;5050518;28;20057;-73
2022/12/30 05:57:05;;;;;;;12.90;2.88;;;;;;;4.68;100.00;100671.47;5045879;28;20042;-72
2022/12/30 05:59:30;;;;;;;20.80;3.50;;;;;;;4.63;100.00;100658.28;5050020;28;20464;-72
2022/12/30 06:01:56;;;;;;;15.00;3.38;;;;;;;4.65;100.00;100661.84;5049799;28;20025;-72
2022/12/30 06:04:21;;;;;;;10.90;2.63;;;;;;;4.61;100.00;100659.03;5053392;28;20087;-71
2022/12/30 06:06:46;;;;;;;18.95;3.00;;;;;;;4.59;100.00;100661.59;5053253;28;20040;-72
2022/12/30 06:09:12;;;;;;;18.92;3.10;;;;;;;4.55;100.00;100657.09;5052331;28;20127;-72
2022/12/30 06:11:37;;;;;;;14.65;3.90;;;;;;;4.56;100.00;100657.16;5058054;28;20492;-72
2022/12/30 06:14:02;;;;;;;16.63;2.88;;;;;;;4.49;100.00;100652.53;5069737;28;20021;-72
2022/12/30 06:16:28;;;;;;;11.48;2.33;;;;;;;4.48;100.00;100653.38;5044803;28;20063;-72
2022/12/30 06:18:53;;;;;;;17.52;3.40;;;;;;;4.42;100.00;100649.63;5053714;28;20052;-72
2022/12/30 06:21:18;;;;;;;15.50;3.78;;;;;;;4.47;100.00;100650.72;5043848;28;20389;-72
2022/12/30 06:23:44;;;;;;;18.90;3.13;;;;;;;4.49;100.00;100644.72;5067652;28;20135;-72
2022/12/30 06:26:09;;;;;;;15.93;2.88;;;;;;;4.48;100.00;100642.06;5053481;28;20203;-72
2022/12/30 06:28:35;;;;;;;16.90;3.70;;;;;;;4.48;100.00;100634.25;5053718;28;20094;-71
2022/12/30 06:31:00;;;;;;;18.17;2.92;;;;;;;4.48;100.00;100634.25;5061420;28;20031;-72
2022/12/30 06:33:25;;;;;;;19.60;3.38;;;;;;;4.46;100.00;100641.09;5053180;28;20443;-72
2022/12/30 06:35:51;;;;;;;12.13;3.33;;;;;;;4.44;100.00;100634.97;5052931;28;20120;-72
2022/12/30 06:38:16;;;;;;;12.05;3.50;;;;;;;4.41;100.00;100632.22;5040506;28;20033;-72
2022/12/30 06:40:44;;;;;;;14.35;3.80;;;;;;;4.43;100.00;100626.25;5050672;28;20121;-73
2022/12/30 06:43:09;;;;;;;20.65;4.03;;;;;;;4.42;100.00;100615.78;5067824;28;20043;-72
2022/12/30 06:45:35;;;;;;;12.98;3.10;;;;;;;4.42;100.00;100620.97;5059331;28;20021;-71
2022/12/30 06:48:01;;;;;;;11.25;3.40;;;;;;;4.39;100.00;100617.44;5043925;28;20107;-71
2022/12/30 06:50:26;;;;;;;12.45;3.78;;;;;;;4.36;100.00;100606.00;5062117;28;20029;-71
2022/12/30 06:52:51;;;;;;;17.17;3.53;;;;;;;4.39;100.00;100600.91;5052970;28;20779;-72
2022/12/30 06:55:17;;;;;;;16.15;3.25;;;;;;;4.32;100.00;100605.00;5054305;28;20099;-72
2022/12/30 06:57:42;;;;;;;18.67;3.80;;;;;;;4.33;100.00;100605.91;5058004;28;20416;-72
2022/12/30 07:00:08;;;;;;;18.48;2.75;;;;;;;4.26;100.00;100586.56;5056530;28;20020;-72
2022/12/30 07:02:34;;;;;;;23.10;3.22;;;;;;;4.28;100.00;100586.59;5054277;28;20052;-72
2022/12/30 07:04:59;;;;;;;12.48;2.88;;;;;;;4.28;100.00;100568.38;5053850;28;20043;-71
2022/12/30 07:07:25;;;;;;;13.30;2.95;;;;;;;4.28;100.00;100566.63;5043977;28;20436;-73
2022/12/30 07:09:51;;;;;;;20.55;3.03;;;;;;;4.30;100.00;100562.41;5037711;28;20103;-73
2022/12/30 07:12:16;;;;;;;21.73;3.25;;;;;;;4.32;100.00;100570.25;5037522;28;20374;-72
2022/12/30 07:14:42;;;;;;;16.08;3.58;;;;;;;4.28;100.00;100561.44;5043864;28;20017;-73
2022/12/30 07:17:07;;;;;;;15.00;3.20;;;;;;;4.30;100.00;100554.56;5053215;28;20033;-72
2022/12/30 07:19:32;;;;;;;15.88;3.88;;;;;;;4.30;100.00;100544.16;5062102;28;20107;-71
2022/12/30 07:21:58;;;;;;;22.98;4.32;;;;;;;4.33;100.00;100551.19;5052448;28;20029;-72
2022/12/30 07:24:23;;;;;;;13.40;2.40;;;;;;;4.33;100.00;100539.06;5032354;28;20424;-70
2022/12/30 07:26:49;;;;;;;11.40;3.17;;;;;;;4.33;100.00;100531.25;5044150;28;20032;-73
2022/12/30 07:29:14;;;;;;;13.20;2.63;;;;;;;4.37;100.00;100527.91;5053740;28;20112;-72
2022/12/30 07:31:40;;;;;;;9.73;3.60;;;;;;;4.37;100.00;100516.63;5052842;28;20090;-73
2022/12/30 07:34:06;;;;;;;19.75;3.97;;;;;;;4.41;100.00;100509.78;5052384;28;20025;-72
2022/12/30 07:36:32;;;;;;;16.20;4.18;;;;;;;4.44;100.00;100516.00;5049106;28;20067;-71
2022/12/30 07:38:57;;;;;;;16.38;3.80;;;;;;;4.46;100.00;100516.94;5037129;28;20074;-71
2022/12/30 07:41:24;;;;;;;15.13;3.00;;;;;;;4.48;100.00;100511.81;5043307;28;20029;-72
2022/12/30 07:43:49;;;;;;;10.20;3.10;;;;;;;4.51;100.00;100507.56;5064389;28;20114;-72
2022/12/30 07:46:14;;;;;;;19.45;4.10;;;;;;;4.52;100.00;100508.47;5048127;28;20025;-71
2022/12/30 07:48:40;;;;;;;14.75;3.30;;;;;;;4.52;100.00;100509.34;5052602;28;20021;-72
2022/12/30 07:51:07;;;;;;;19.88;4.38;;;;;;;4.54;100.00;100512.91;5047394;28;20417;-72
2022/12/30 07:53:32;;;;;;;24.67;4.25;;;;;;;4.62;100.00;100520.09;5047687;28;20016;-74
2022/12/30 07:55:58;;;;;;;21.20;4.43;;;;;;;4.66;100.00;100503.75;5044943;28;20113;-72
2022/12/30 07:58:23;;;;;;;15.13;3.90;;;;;;;4.68;100.00;100494.22;5052721;28;20044;-74
2022/12/30 08:00:48;;;;;;;11.18;4.78;;;;;;;4.71;100.00;100492.63;5050630;28;20033;-72
2022/12/30 08:03:14;;;;;;;16.10;4.30;;;;;;;4.77;100.00;100494.56;5056533;28;20041;-72
2022/12/30 08:05:39;;;;;;;15.07;4.65;;;;;;;4.80;100.00;100483.34;5058390;28;20028;-73
2022/12/30 08:08:05;;;;;;;14.95;5.10;;;;;;;4.82;100.00;100492.13;5046014;28;20082;-71
2022/12/30 08:10:30;;;;;;;18.42;5.18;;;;;;;4.84;100.00;100495.66;5045711;28;20385;-72
2022/12/30 08:12:55;;;;;;;23.55;5.93;;;;;;;4.92;100.00;100493.31;5051110;28;20320;-71
2022/12/30 08:15:21;;;;;;;21.65;6.43;;;;;;;4.95;100.00;100472.56;5048959;28;20037;-72
2022/12/30 08:17:46;;;;;;;18.17;6.40;;;;;;;4.98;100.00;100476.16;5048559;28;20079;-72
2022/12/30 08:20:11;;;;;;;10.45;4.60;;;;;;;4.99;100.00;100464.00;5051856;28;20039;-72
2022/12/30 08:22:39;;;;;;;11.27;4.35;;;;;;;5.00;100.00;100487.50;5037549;28;20025;-72
2022/12/30 08:25:05;;;;;;;12.73;4.40;;;;;;;5.07;100.00;100480.78;5049097;28;20029;-72
2022/12/30 08:27:32;;;;;;;21.02;4.55;;;;;;;5.11;100.00;100479.16;5043152;28;20484;-72
2022/12/30 08:29:57;;;;;;;11.23;4.38;;;;;;;5.14;100.00;100479.25;5041694;28;20400;-72
2022/12/30 08:32:22;;;;;;;14.13;4.35;;;;;;;5.15;100.00;100475.81;5046224;28;20045;-71
2022/12/30 08:34:48;;;;;;;13.70;4.07;;;;;;;5.19;100.00;100457.69;5043901;28;20025;-72
2022/12/30 08:37:13;;;;;;;14.25;4.03;;;;;;;5.27;100.00;100465.78;5043011;28;20507;-72
2022/12/30 08:39:38;;;;;;;15.15;3.88;;;;;;;5.34;100.00;100466.88;5050324;28;20435;-73
2022/12/30 08:42:04;;;;;;;11.13;3.72;;;;;;;5.38;100.00;100463.50;5048404;28;20449;-72
2022/12/30 08:44:29;;;;;;;12.10;4.40;;;;;;;5.38;100.00;100468.72;5045088;28;20094;-72
2022/12/30 08:46:54;;;;;;;9.05;4.53;;;;;;;5.44;100.00;100452.38;5050931;28;20119;-70
2022/12/30 08:49:20;;;;;;;11.82;3.40;;;;;;;5.47;100.00;100450.75;5051137;28;20092;-75
2022/12/30 08:51:46;;;;;;;10.55;4.22;;;;;;;5.49;100.00;100456.03;5047860;28;20115;-73
2022/12/30 08:54:11;;;;;;;15.38;4.00;;;;;;;5.51;100.00;100441.31;5039536;28;20525;-71
2022/12/30 08:56:39;;;;;;;15.40;4.28;;;;;;;5.59;100.00;100434.59;5043176;28;20028;-72
2022/12/30 08:59:05;;;;;;;11.98;3.95;;;;;;;5.56;100.00;100439.69;5030360;28;20098;-72
2022/12/30 09:01:36;;;;;;;8.52;3.35;;;;;;;5.61;100.00;100429.41;5049100;28;20029;-71
2022/12/30 09:04:03;;;;;;;15.73;4.25;;;;;;;5.61;100.00;100422.47;5047734;28;20566;-71
2022/12/30 09:06:30;;;;;;;11.25;2.90;;;;;;;5.65;100.00;100420.84;5046916;28;20017;-70
2022/12/30 09:08:58;;;;;;;16.25;4.03;;;;;;;5.64;100.00;100408.63;5044904;28;20029;-72
2022/12/30 09:11:29;;;;;;;14.00;4.53;;;;;;;5.61;100.00;100404.19;5047244;28;20041;-72
2022/12/30 09:13:55;;;;;;;15.80;4.80;;;;;;;5.66;100.00;100405.22;5043268;28;20104;-71
2022/12/30 09:16:21;;;;;;;14.57;3.70;;;;;;;5.66;100.00;100397.38;5048307;28;20481;-72
2022/12/30 09:18:47;;;;;;;10.98;3.15;;;;;;;5.67;100.00;100404.38;5048224;28;20035;-71
2022/12/30 09:21:13;;;;;;;8.48;3.20;;;;;;;5.73;100.00;100398.44;5045157;28;20111;-71
2022/12/30 09:23:38;;;;;;;6.70;2.70;;;;;;;5.72;100.00;100397.59;5046379;28;20084;-72
2022/12/30 09:26:05;;;;;;;15.77;3.13;;;;;;;5.73;100.00;100394.09;5062139;28;20082;-71
2022/12/30 09:28:30;;;;;;;7.38;2.50;;;;;;;5.78;100.00;100385.50;5047244;28;20098;-73
2022/12/30 09:30:56;;;;;;;10.32;2.78;;;;;;;5.80;100.00;100369.06;5042714;28;20408;-72
2022/12/30 09:33:21;;;;;;;14.07;3.00;;;;;;;5.81;100.00;100370.84;5042476;28;20037;-71
2022/12/30 09:35:46;;;;;;;12.38;3.10;;;;;;;5.81;100.00;100373.44;5052557;28;20409;-72
2022/12/30 09:38:12;;;;;;;8.85;2.85;;;;;;;5.81;100.00;100370.84;5046885;28;20147;-73
2022/12/30 09:40:46;;;;;;;8.27;2.92;;;;;;;5.84;100.00;100354.38;5049100;28;20116;-73
2022/12/30 09:43:21;;;;;;;7.25;2.67;;;;;;;5.81;100.00;100351.69;5050932;28;20036;-71
2022/12/30 09:46:20;;;;;;;10.02;2.95;;;;;;;5.85;100.00;100341.34;5050056;28;20098;-73
2022/12/30 09:49:24;;;;;;;9.52;3.08;;;;;;;5.85;100.00;100332.66;5046378;28;20041;-72
2022/12/30 09:52:10;;;;;;;13.68;2.40;;;;;;;5.90;100.00;100339.75;5045675;28;20041;-72
2022/12/30 09:54:39;;;;;;;14.45;2.50;;;;;;;5.91;100.00;100324.97;5051104;28;20103;-72
2022/12/30 09:59:57;;;;;;;8.57;4.18;;;;;;;5.96;100.00;100328.59;5044991;28;20032;-71
2022/12/30 10:02:29;;;;;;;8.20;2.70;;;;;;;5.96;100.00;100318.16;5045433;28;20048;-74
2022/12/30 10:04:56;;;;;;;9.02;2.15;;;;;;;6.00;100.00;100317.41;5043175;28;20086;-74
2022/12/30 10:07:37;;;;;;;8.32;3.20;;;;;;;5.99;100.00;100302.59;5046978;28;20025;-74
2022/12/30 10:10:15;;;;;;;7.03;2.03;;;;;;;6.05;100.00;100302.75;5042240;28;20449;-74
2022/12/30 10:12:50;;;;;;;6.30;2.33;;;;;;;6.06;100.00;100286.25;5045990;28;20380;-77
2022/12/30 10:15:23;;;;;;;8.07;2.50;;;;;;;6.07;100.00;100282.78;5045678;28;20025;-74
2022/12/30 10:18:18;;;;;;;10.55;2.65;;;;;;;6.09;100.00;100272.38;5045885;28;20380;-74
2022/12/30 10:21:04;;;;;;;7.53;2.25;;;;;;;6.15;100.00;100266.44;5017682;28;20048;-73
2022/12/30 10:24:17;;;;;;;5.18;2.25;;;;;;;6.17;100.00;100249.06;5045702;28;20028;-72
2022/12/30 10:26:48;;;;;;;7.60;2.17;;;;;;;6.16;100.00;100236.81;5007058;28;20069;-71
2022/12/30 10:29:16;;;;;;;6.20;2.00;;;;;;;6.22;100.00;100237.84;5046490;28;20060;-71
2022/12/30 10:31:44;;;;;;;8.68;2.47;;;;;;;6.26;100.00;100223.16;5049076;28;20047;-71
2022/12/30 10:34:14;;;;;;;9.40;2.33;;;;;;;6.27;100.00;100219.69;5046374;28;20017;-72
2022/12/30 10:36:48;;;;;;;3.40;1.85;;;;;;;6.27;100.00;100213.56;5045390;28;20552;-70
2022/12/30 10:39:22;;;;;;;13.18;1.85;;;;;;;6.31;100.00;100194.50;5032350;28;20033;-72
2022/12/30 10:42:06;;;;;;;;;;;;;;;6.33;100.00;100185.88;5034564;28;20283;-73
2022/12/30 10:44:58;;;;;;;7.90;2.33;;;;;;;6.40;100.00;100172.09;5040475;28;19924;-73
2022/12/30 10:47:47;;;;;;;8.27;1.70;;;;;;;6.43;100.00;100159.94;5044355;28;20112;-73
2022/12/30 10:50:40;;;;;;;5.50;2.08;;;;;;;6.47;100.00;100151.31;5045609;28;20027;-72
2022/12/30 10:53:13;;;;;;;9.13;2.15;;;;;;;6.49;100.00;100141.81;5049029;28;20105;-72
2022/12/30 10:55:47;;;;;;;4.88;1.90;;;;;;;6.52;100.00;100139.25;5048357;28;20389;-73
2022/12/30 10:58:37;;;;;;;14.00;2.58;;;;;;;6.53;100.00;100120.09;5054382;28;20382;-74
2022/12/30 11:01:03;;;;;;;13.18;2.10;;;;;;;6.52;100.00;100094.81;5046932;28;20025;-74
2022/12/30 11:03:31;;;;;;;7.53;2.33;;;;;;;6.56;100.00;100081.81;5052318;28;20099;-72
2022/12/30 11:06:17;;;;;;;4.88;1.83;;;;;;;6.65;100.00;100082.88;5054550;28;20532;-74
2022/12/30 11:08:42;;;;;;;4.15;1.60;;;;;;;6.65;100.00;100068.06;5041286;28;20037;-75
2022/12/30 11:11:09;;;;;;;4.28;1.92;;;;;;;6.70;100.00;100048.13;5043609;28;20086;-74
2022/12/30 11:16:29;;;;;;;5.72;1.55;;;;;;;6.69;100.00;100046.38;5057940;28;20098;-74
2022/12/30 11:18:57;;;;;;;5.93;1.67;;;;;;;6.74;100.00;100031.66;5055853;28;20044;-73
2022/12/30 11:21:29;;;;;;;6.47;1.75;;;;;;;6.76;100.00;100029.06;5065080;28;20037;-76
2022/12/30 11:23:56;;;;;;;5.32;1.50;;;;;;;6.79;100.00;100005.59;5050938;28;20025;-74
2022/12/30 11:26:23;;;;;;;5.22;2.38;;;;;;;6.83;100.00;100003.91;5048063;28;20036;-73
2022/12/30 11:29:09;;;;;;;4.43;1.77;;;;;;;6.83;100.00;99983.88;5052567;28;20485;-73
2022/12/30 11:31:42;;;;;;;3.78;1.60;;;;;;;6.89;100.00;99977.84;5048444;28;20013;-75
2022/12/30 11:34:24;;;;;;;11.32;1.58;;;;;;;6.91;100.00;99966.56;5057482;28;20021;-75
2022/12/30 11:36:50;;;;;;;8.73;1.85;;;;;;;7.00;100.00;99975.44;5054396;28;20053;-74
2022/12/30 11:39:15;;;;;;;9.10;1.75;;;;;;;7.04;100.00;99949.38;5049887;28;20060;-73
2022/12/30 11:41:53;;;;;;;6.93;1.75;;;;;;;7.05;100.00;99939.78;5052685;28;20025;-74
2022/12/30 11:44:38;;;;;;;9.23;1.42;;;;;;;7.02;100.00;99926.66;5057104;28;20021;-73
2022/12/30 11:47:06;;;;;;;4.30;1.70;;;;;;;6.95;100.00;99909.97;5055406;28;20420;-72
2022/12/30 11:49:50;;;;;;;9.18;2.17;;;;;;;6.92;100.00;99896.84;5053310;28;20151;-74
2022/12/30 11:52:20;;;;;;;9.38;2.17;;;;;;;6.89;100.00;99894.16;5046005;28;20033;-75
2022/12/30 11:55:07;;;;;;;7.63;2.20;;;;;;;6.87;100.00;99882.81;5048922;28;20065;-72
2022/12/30 11:57:40;;;;;;;5.75;1.88;;;;;;;6.88;100.00;99881.97;5051018;28;20040;-70
2022/12/30 12:00:26;;;;;;;8.60;1.88;;;;;;;6.84;100.00;99872.31;5053172;28;20029;-72
2022/12/30 12:03:21;;;;;;;6.45;1.50;;;;;;;6.81;100.00;99859.19;5046401;28;20102;-73
2022/12/30 12:05:46;;;;;;;7.22;1.70;;;;;;;6.80;100.00;99860.06;5043733;28;20551;-74
2022/12/30 12:08:26;;;;;;;6.28;1.40;;;;;;;6.81;100.00;99856.56;5052665;28;20029;-72
2022/12/30 12:11:04;;;;;;;5.53;1.40;;;;;;;6.85;100.00;99832.22;5061011;28;20039;-72
2022/12/30 12:14:00;;;;;;;9.52;1.73;;;;;;;6.87;100.00;99835.75;5060397;28;20549;-72
2022/12/30 12:16:48;;;;;;;5.78;1.67;;;;;;;6.90;100.00;99833.16;5061383;28;20036;-71
2022/12/30 12:19:24;;;;;;;11.65;2.50;;;;;;;6.89;100.00;99816.63;5052370;28;20021;-71
2022/12/30 12:21:54;;;;;;;6.72;1.77;;;;;;;6.88;100.00;99801.78;5052318;28;20444;-72
2022/12/30 12:24:40;;;;;;;4.82;1.70;;;;;;;6.89;100.00;99797.41;5058773;28;20029;-72
2022/12/30 12:27:11;;;;;;;6.85;1.67;;;;;;;6.88;100.00;99785.22;5044552;28;20380;-71
2022/12/30 12:29:37;;;;;;;18.20;1.85;;;;;;;6.92;100.00;99750.41;5049200;28;20410;-71
2022/12/30 12:32:12;;;;;;;10.07;2.30;;;;;;;6.94;100.00;99743.44;5044954;28;20105;-72